Aérodrome :
LOGIN :

S'inscrire | Disclaimer

   EN    FR    IT 

 










Légende :    VFR   VFR Marginal   IFR   IFR Intensif   IFR Très Intensif
Visi : 
Plafond : 
>= 8 km
>= 3000ft
5 à 8 km
1000 à 3000 ft
1500m à 5 km
500 à 1000 ft
800 à 1500m
200 à 500 ft
< 800m
< 200 ft
Symboles :   Orages  Brouillard  Fortes neiges  Fortes précipitations  Vent > 20 kt
SIGMETs :   Divers  Orages  Givrage  Turbulence  Onde Orograph.  Cendres Volcan.







- Altitude de l'aérodrome : 142 ft
- Code IATA : FLR


LIRQ - Firenze Amerigo Vespucci

DERNIER METAR :
  • 230220Z 09003KT CAVOK 20/17 Q1016

METARs EXPIRÉS :
  • 230150Z 10003KT 060V120 CAVOK 21/17 Q1016
  • 230120Z 10003KT CAVOK 21/17 Q1016
  • 230050Z 09004KT CAVOK 21/17 Q1016
  • 230020Z 07003KT CAVOK 22/17 Q1016
  • 222350Z 10002KT CAVOK 22/17 Q1016

TAF TAF LIRQ
Valide du 23 à 00h jusqu'au 24 à 00h UTC


222300Z 2300/2324 VRB06KT 9999 FEW030
BECMG 2308/2310 23012KT
BECMG 2318/2320 VRB05KT
Pas de NOTAMs connus pour ce terrain.



MET'MAP, la Météo Aéronautique d'un coup d'oeil ! - Copyright ORBIFLY Décembre 2007 - Disclaimer

ORBIFLY MET'MAP TEAM :

Programmation & Développement : Alexandra Zaïnal
Conception & Développement : Baudouin d'Aumeries
Co-Programmation & Développement : Marc-Olivier Méhu
Soutien technique & logistique : Manuel Goepfert

Contact : metmap@orbifly.com




SOURCES & CREDITS :

   NOAA